Time;durP1;ratioP1;P1;durP2;ratioP2;P2;SDS_P1;SDS_P2;PMS_P1;PMS_P2;Temp;Humidity;BMP_temperature;BMP_pressure;BME280_temperature;BME280_humidity;BME280_pressure;Samples;Min_cycle;Max_cycle;Signal;HPM_P1;HPM_P2
2024/02/29 00:00:58;;;;;;;21.38;13.98;;;;;;;3.80;82.88;101235.41;5017767;28;20547;-76
2024/02/29 00:03:25;;;;;;;22.23;13.13;;;;;;;3.68;83.49;101243.00;5020761;28;20137;-76
2024/02/29 00:05:54;;;;;;;23.77;13.07;;;;;;;3.65;83.85;101230.06;5024960;28;20046;-77
2024/02/29 00:08:21;;;;;;;21.25;12.85;;;;;;;3.62;84.09;101223.22;5026535;28;20114;-76
2024/02/29 00:10:47;;;;;;;22.27;12.48;;;;;;;3.54;83.54;101223.59;5018755;28;20074;-77
2024/02/29 00:13:14;;;;;;;22.63;13.07;;;;;;;3.52;83.73;101227.19;5017490;28;20100;-77
2024/02/29 00:15:40;;;;;;;20.10;12.40;;;;;;;3.48;83.79;101226.50;5017439;28;20109;-77
2024/02/29 00:18:08;;;;;;;21.08;12.38;;;;;;;3.53;83.14;101234.13;5017471;28;20085;-77
2024/02/29 00:20:35;;;;;;;21.58;12.60;;;;;;;3.47;83.15;101234.41;5017230;28;20081;-78
2024/02/29 00:23:03;;;;;;;22.58;12.32;;;;;;;3.41;83.23;101229.50;5015658;28;20096;-77
2024/02/29 00:25:30;;;;;;;22.73;13.02;;;;;;;3.36;82.86;101232.31;5015041;28;20050;-77
2024/02/29 00:27:57;;;;;;;19.75;12.52;;;;;;;3.35;82.82;101233.25;5015414;28;20133;-78
2024/02/29 00:30:24;;;;;;;21.60;12.48;;;;;;;3.22;83.50;101234.75;5015026;28;20161;-78
2024/02/29 00:32:51;;;;;;;19.73;11.32;;;;;;;3.34;82.06;101228.06;5015428;28;20143;-77
2024/02/29 00:35:18;;;;;;;22.17;11.75;;;;;;;3.31;81.73;101230.84;5014640;28;20077;-78
2024/02/29 00:37:45;;;;;;;19.08;11.38;;;;;;;3.46;80.84;101230.94;5015234;28;20053;-77
2024/02/29 00:40:13;;;;;;;23.65;12.00;;;;;;;3.42;80.88;101234.63;5014704;28;20207;-76
2024/02/29 00:42:40;;;;;;;20.60;10.88;;;;;;;3.28;81.04;101229.22;5013347;28;20172;-76
2024/02/29 00:45:07;;;;;;;18.40;11.13;;;;;;;3.35;80.30;101225.41;5012304;28;20136;-76
2024/02/29 00:47:34;;;;;;;20.60;11.60;;;;;;;3.40;79.83;101233.88;5021160;28;20042;-77
2024/02/29 00:50:00;;;;;;;22.00;11.70;;;;;;;3.40;80.31;101223.41;5025284;28;20113;-76
2024/02/29 00:52:27;;;;;;;20.00;11.25;;;;;;;3.44;79.79;101219.72;5013071;28;20069;-77
2024/02/29 00:54:53;;;;;;;20.35;10.85;;;;;;;3.45;79.60;101213.56;5013043;28;20053;-76
2024/02/29 00:57:21;;;;;;;20.25;10.80;;;;;;;3.38;79.79;101214.78;5012796;28;20132;-76
2024/02/29 00:59:48;;;;;;;19.15;10.90;;;;;;;3.40;79.44;101205.09;5015795;28;20072;-76
2024/02/29 01:02:15;;;;;;;21.48;11.82;;;;;;;3.37;79.93;101205.22;5016408;28;20141;-76
2024/02/29 01:04:41;;;;;;;17.73;10.38;;;;;;;3.45;79.16;101203.09;5012540;28;20052;-76
2024/02/29 01:07:08;;;;;;;17.63;10.50;;;;;;;3.43;78.67;101202.31;5012247;28;20054;-76
2024/02/29 01:09:34;;;;;;;19.98;11.57;;;;;;;3.39;78.82;101200.75;5014857;28;20133;-76
2024/02/29 01:12:01;;;;;;;19.80;11.10;;;;;;;3.44;78.55;101204.03;5012248;28;20423;-78
2024/02/29 01:14:29;;;;;;;23.08;12.25;;;;;;;3.49;78.51;101204.66;5012524;28;20052;-76
2024/02/29 01:16:58;;;;;;;21.45;11.43;;;;;;;3.50;77.99;101195.88;5011671;28;20174;-76
2024/02/29 01:19:24;;;;;;;22.25;12.23;;;;;;;3.46;78.97;101191.72;5011249;28;20125;-76
2024/02/29 01:21:51;;;;;;;22.50;12.60;;;;;;;3.45;78.86;101186.56;5011429;28;20140;-77
2024/02/29 01:24:18;;;;;;;21.27;12.10;;;;;;;3.45;78.69;101190.03;5011600;28;20115;-75
2024/02/29 01:26:45;;;;;;;20.95;12.07;;;;;;;3.45;78.36;101179.56;5011279;28;20250;-76
2024/02/29 01:29:11;;;;;;;23.25;13.45;;;;;;;3.39;79.19;101173.75;5018714;28;20479;-77
2024/02/29 01:31:39;;;;;;;20.38;12.32;;;;;;;3.45;78.56;101171.69;5011165;28;20132;-76
2024/02/29 01:34:06;;;;;;;24.70;13.68;;;;;;;3.46;78.37;101165.53;5011254;28;20152;-77
2024/02/29 01:36:32;;;;;;;23.85;13.35;;;;;;;3.44;78.91;101167.41;5011550;28;20132;-76
2024/02/29 01:38:59;;;;;;;23.55;12.55;;;;;;;3.38;78.85;101161.59;5022369;28;20081;-76
2024/02/29 01:41:26;;;;;;;25.42;12.98;;;;;;;3.32;79.01;101160.16;5014455;28;20085;-79
2024/02/29 01:43:53;;;;;;;26.98;13.70;;;;;;;3.34;79.01;101158.28;5014275;28;20111;-75
2024/02/29 01:46:21;;;;;;;24.15;13.32;;;;;;;3.30;79.73;101154.13;5014440;28;20456;-77
2024/02/29 01:48:49;;;;;;;26.00;13.75;;;;;;;3.33;79.21;101151.38;5014417;28;20497;-77
2024/02/29 01:51:17;;;;;;;26.27;13.88;;;;;;;3.32;79.51;101147.06;5014362;28;20478;-77
2024/02/29 01:53:44;;;;;;;27.02;13.15;;;;;;;3.27;80.07;101143.84;5014011;28;20140;-77
2024/02/29 01:56:12;;;;;;;26.35;13.57;;;;;;;3.31;79.92;101140.16;5014218;28;20508;-77
2024/02/29 01:58:39;;;;;;;26.00;14.27;;;;;;;3.32;79.75;101138.38;5021700;28;20132;-76
2024/02/29 02:01:06;;;;;;;23.48;13.45;;;;;;;3.24;80.43;101128.28;5014401;28;20081;-77
2024/02/29 02:03:33;;;;;;;27.83;13.63;;;;;;;3.19;80.06;101131.13;5014053;28;20050;-76
2024/02/29 02:06:01;;;;;;;25.88;14.23;;;;;;;3.19;79.92;101131.13;5014002;28;20465;-76
2024/02/29 02:08:31;;;;;;;29.23;14.60;;;;;;;3.33;79.35;101137.44;5013909;28;20552;-77
2024/02/29 02:10:58;;;;;;;29.25;14.73;;;;;;;3.22;79.76;101130.97;5013969;28;20058;-76
2024/02/29 02:13:24;;;;;;;28.90;14.73;;;;;;;3.21;80.02;101128.41;5013481;28;20084;-76
2024/02/29 02:15:51;;;;;;;25.50;14.43;;;;;;;3.26;79.67;101119.44;5013845;28;20469;-76
2024/02/29 02:18:17;;;;;;;25.10;14.70;;;;;;;3.22;79.42;101125.75;5021829;28;20046;-76
2024/02/29 02:20:45;;;;;;;30.30;14.38;;;;;;;3.18;79.99;101115.50;5014475;28;20081;-76
2024/02/29 02:23:12;;;;;;;24.42;12.77;;;;;;;3.16;79.87;101118.19;5013880;28;20429;-76
2024/02/29 02:25:39;;;;;;;26.25;14.50;;;;;;;3.00;80.33;101120.72;5013963;28;20129;-76
2024/02/29 02:28:05;;;;;;;31.35;15.13;;;;;;;2.99;80.60;101113.78;5017868;28;20136;-77
2024/02/29 02:30:32;;;;;;;23.70;13.57;;;;;;;2.98;80.71;101112.06;5013917;28;20132;-77
2024/02/29 02:32:59;;;;;;;29.33;15.32;;;;;;;3.03;80.32;101107.47;5017860;28;20101;-76
2024/02/29 02:35:26;;;;;;;28.30;15.13;;;;;;;2.97;80.83;101099.94;5027806;28;20424;-76
2024/02/29 02:37:54;;;;;;;27.23;14.60;;;;;;;2.87;81.19;101101.31;5015348;28;20046;-76
2024/02/29 02:40:21;;;;;;;26.40;13.95;;;;;;;2.77;81.55;101092.22;5014900;28;20140;-77
2024/02/29 02:42:47;;;;;;;27.40;15.40;;;;;;;2.74;81.82;101098.41;5014479;28;20045;-77
2024/02/29 02:45:14;;;;;;;27.65;14.52;;;;;;;2.75;82.12;101086.19;5015142;28;20456;-76
2024/02/29 02:47:40;;;;;;;28.75;14.05;;;;;;;2.78;81.30;101073.00;5017114;28;20501;-76
2024/02/29 02:50:07;;;;;;;28.25;15.55;;;;;;;2.81;81.33;101071.97;5011835;28;20137;-76
2024/02/29 02:52:34;;;;;;;29.80;15.40;;;;;;;2.78;80.71;101065.16;5013431;28;20137;-77
2024/02/29 02:55:02;;;;;;;25.90;14.40;;;;;;;2.83;80.50;101070.16;5013614;28;20144;-76
2024/02/29 02:57:28;;;;;;;26.23;14.50;;;;;;;2.83;80.74;101057.94;5014128;28;20132;-78
2024/02/29 02:59:55;;;;;;;25.45;14.20;;;;;;;2.82;80.71;101064.09;5013684;28;20053;-76
2024/02/29 03:02:22;;;;;;;28.48;14.48;;;;;;;2.81;80.62;101051.06;5013011;28;20112;-78
2024/02/29 03:04:49;;;;;;;31.13;15.80;;;;;;;2.79;80.58;101049.38;5012225;28;20049;-78
2024/02/29 03:07:16;;;;;;;26.52;14.38;;;;;;;2.73;80.96;101054.94;5012947;28;20050;-78
2024/02/29 03:09:42;;;;;;;32.55;14.32;;;;;;;2.66;80.76;101048.28;5013442;28;20596;-76
2024/02/29 03:12:10;;;;;;;32.95;15.13;;;;;;;2.65;81.28;101046.59;5012837;28;20567;-78
2024/02/29 03:14:37;;;;;;;29.15;15.02;;;;;;;2.57;81.36;101040.88;5022715;28;20064;-78
2024/02/29 03:17:04;;;;;;;28.50;14.40;;;;;;;2.50;81.86;101031.63;5013449;28;20077;-78
2024/02/29 03:19:30;;;;;;;28.73;14.65;;;;;;;2.49;81.72;101036.03;5013052;28;20060;-78
2024/02/29 03:21:57;;;;;;;24.48;14.40;;;;;;;2.50;81.46;101035.13;5016214;28;20420;-78
2024/02/29 03:24:23;;;;;;;25.40;14.27;;;;;;;2.51;81.31;101022.91;5012683;28;20133;-78
2024/02/29 03:26:50;;;;;;;26.55;14.27;;;;;;;2.55;81.05;101024.47;5012876;28;20132;-78
2024/02/29 03:29:18;;;;;;;25.48;14.20;;;;;;;2.52;81.17;101030.66;5012533;28;20054;-77
2024/02/29 03:31:45;;;;;;;27.80;14.15;;;;;;;2.57;80.97;101016.53;5012700;28;20072;-78
2024/02/29 03:34:11;;;;;;;28.50;15.27;;;;;;;2.59;81.25;101012.94;5011987;28;20117;-78
2024/02/29 03:36:38;;;;;;;24.73;13.85;;;;;;;2.56;81.38;101009.63;5012230;28;20056;-78
2024/02/29 03:39:05;;;;;;;30.52;15.82;;;;;;;2.57;81.53;101013.91;5012146;28;20123;-77
2024/02/29 03:41:32;;;;;;;28.90;15.32;;;;;;;2.61;81.16;100998.03;5035478;22;20508;-79
2024/02/29 03:44:01;;;;;;;34.00;15.80;;;;;;;2.65;80.89;100990.88;5020873;28;20133;-79
2024/02/29 03:46:29;;;;;;;33.55;14.73;;;;;;;2.67;81.12;100987.25;5021075;28;20080;-78
2024/02/29 03:48:55;;;;;;;29.75;14.98;;;;;;;2.71;80.99;100988.81;5022721;28;20113;-79
2024/02/29 03:51:22;;;;;;;28.77;15.90;;;;;;;2.74;80.83;100988.66;5015442;28;20050;-79
2024/02/29 03:53:49;;;;;;;28.45;15.20;;;;;;;2.75;80.85;100995.56;5015470;28;20076;-79
2024/02/29 03:56:16;;;;;;;30.48;15.63;;;;;;;2.79;80.67;100977.97;5016678;28;20084;-79
2024/02/29 03:58:42;;;;;;;31.30;16.15;;;;;;;2.76;81.14;100978.97;5018730;28;20121;-79
2024/02/29 04:01:10;;;;;;;31.80;16.65;;;;;;;2.81;81.34;100975.28;5018492;28;20531;-79
2024/02/29 04:03:38;;;;;;;35.17;16.02;;;;;;;2.78;81.26;100968.47;5018000;28;20085;-79
2024/02/29 04:06:06;;;;;;;30.85;16.60;;;;;;;2.74;82.21;100970.38;5015055;28;20124;-79
2024/02/29 04:08:33;;;;;;;32.60;16.95;;;;;;;2.79;82.25;100972.75;5014880;28;20065;-80
2024/02/29 04:11:00;;;;;;;32.53;16.52;;;;;;;2.76;82.22;100970.28;5015036;28;20088;-79
2024/02/29 04:13:26;;;;;;;31.60;16.80;;;;;;;2.79;81.86;100964.91;5015301;28;20045;-81
2024/02/29 04:15:53;;;;;;;29.55;14.85;;;;;;;2.77;81.81;100964.16;5016263;28;20125;-77
2024/02/29 04:18:20;;;;;;;31.50;15.45;;;;;;;2.78;81.89;100963.22;5015245;28;20125;-79
2024/02/29 04:20:50;;;;;;;27.17;15.52;;;;;;;2.82;81.59;100958.72;5015113;28;20459;-79
2024/02/29 04:23:19;;;;;;;26.52;14.82;;;;;;;2.79;81.77;100954.47;5015776;28;20571;-79
2024/02/29 04:25:46;;;;;;;31.20;14.70;;;;;;;2.82;81.68;100945.63;5015979;28;20140;-78
2024/02/29 04:28:14;;;;;;;27.17;15.00;;;;;;;2.79;81.58;100954.47;5014542;28;20104;-79
2024/02/29 04:30:44;;;;;;;28.77;14.65;;;;;;;2.76;81.78;100944.16;5014605;28;20115;-79
2024/02/29 04:33:12;;;;;;;26.50;14.95;;;;;;;2.77;81.38;100945.88;5013738;28;20132;-76
2024/02/29 04:35:38;;;;;;;31.70;14.23;;;;;;;2.69;81.51;100943.63;5012603;28;20494;-77
2024/02/29 04:38:07;;;;;;;27.30;14.75;;;;;;;2.69;81.96;100946.25;5011646;28;20042;-77
2024/02/29 04:40:33;;;;;;;29.73;14.45;;;;;;;2.71;81.34;100946.16;5011690;28;20128;-78
2024/02/29 04:43:00;;;;;;;26.85;14.70;;;;;;;2.69;81.79;100942.78;5013604;28;20148;-80
2024/02/29 04:45:27;;;;;;;24.85;13.88;;;;;;;2.69;81.49;100940.19;5013019;28;20053;-78
2024/02/29 04:47:54;;;;;;;27.80;15.15;;;;;;;2.63;81.54;100933.47;5006356;28;20076;-80
2024/02/29 04:50:21;;;;;;;25.77;14.57;;;;;;;2.62;81.79;100936.16;5010653;28;20099;-79
2024/02/29 04:52:47;;;;;;;31.90;15.13;;;;;;;2.59;82.10;100921.50;5015416;28;20077;-78
2024/02/29 04:55:15;;;;;;;25.92;13.98;;;;;;;2.59;81.77;100928.47;5014866;28;20436;-79
2024/02/29 04:57:42;;;;;;;26.40;14.45;;;;;;;2.59;81.72;100936.31;5014745;28;20050;-79
2024/02/29 05:00:10;;;;;;;25.50;13.90;;;;;;;2.58;82.33;100921.56;5013939;28;20219;-78
2024/02/29 05:02:37;;;;;;;26.55;12.90;;;;;;;2.58;81.85;100926.78;5014196;28;20061;-80
2024/02/29 05:05:06;;;;;;;24.58;12.93;;;;;;;2.60;82.38;100923.19;5013621;28;20576;-78
2024/02/29 05:07:32;;;;;;;28.13;14.18;;;;;;;2.63;82.34;100922.16;5014545;28;20497;-78
2024/02/29 05:09:59;;;;;;;28.63;13.93;;;;;;;2.59;82.39;100915.41;5014372;28;20153;-79
2024/02/29 05:12:27;;;;;;;26.23;14.05;;;;;;;2.62;82.76;100920.50;5014640;28;20140;-79
2024/02/29 05:14:54;;;;;;;25.35;14.30;;;;;;;2.64;82.20;100916.06;5017541;28;20045;-82
2024/02/29 05:17:20;;;;;;;30.63;15.60;;;;;;;2.65;82.13;100909.91;5014215;28;20197;-79
2024/02/29 05:19:48;;;;;;;29.48;15.40;;;;;;;2.66;82.12;100904.56;5017462;28;20050;-77
2024/02/29 05:22:17;;;;;;;29.25;15.13;;;;;;;2.66;81.87;100909.81;5016905;28;20054;-78
2024/02/29 05:24:44;;;;;;;27.73;15.00;;;;;;;2.60;82.54;100901.44;5016901;28;20105;-79
2024/02/29 05:27:11;;;;;;;30.88;15.18;;;;;;;2.66;82.17;100891.50;5018616;28;20042;-79
2024/02/29 05:29:39;;;;;;;25.45;15.18;;;;;;;2.57;82.67;100902.44;5018594;28;20129;-79
2024/02/29 05:32:06;;;;;;;33.33;16.75;;;;;;;2.60;82.26;100906.66;5018131;28;20078;-79
2024/02/29 05:34:33;;;;;;;26.88;15.40;;;;;;;2.60;82.40;100901.44;5016411;28;20049;-79
2024/02/29 05:37:00;;;;;;;29.67;15.20;;;;;;;2.63;82.22;100898.66;5013529;28;20105;-79
2024/02/29 05:39:26;;;;;;;27.95;15.30;;;;;;;2.63;82.13;100894.28;5016833;28;20136;-78
2024/02/29 05:41:55;;;;;;;28.27;14.88;;;;;;;2.61;82.34;100890.06;5017080;28;20053;-78
2024/02/29 05:44:23;;;;;;;29.75;15.52;;;;;;;2.58;82.67;100891.06;5017292;28;20667;-77
2024/02/29 05:46:51;;;;;;;27.70;14.82;;;;;;;2.62;82.23;100878.69;5016430;28;20169;-79
2024/02/29 05:49:17;;;;;;;26.10;14.07;;;;;;;2.62;82.33;100883.91;5014941;28;20106;-78
2024/02/29 05:51:44;;;;;;;29.13;14.50;;;;;;;2.66;81.68;100880.22;5017380;28;20046;-79
2024/02/29 05:54:11;;;;;;;29.35;14.27;;;;;;;2.72;81.29;100879.91;5018764;28;20046;-81
2024/02/29 05:56:38;;;;;;;28.48;14.50;;;;;;;2.71;81.23;100878.22;5018097;28;20137;-79
2024/02/29 05:59:05;;;;;;;27.38;14.85;;;;;;;2.67;81.33;100876.69;5019053;28;20064;-79
2024/02/29 06:01:32;;;;;;;32.25;14.52;;;;;;;2.68;80.67;100874.00;5020663;28;20558;-77
2024/02/29 06:04:00;;;;;;;28.13;14.32;;;;;;;2.67;81.17;100869.69;5019807;28;20478;-79
2024/02/29 06:06:27;;;;;;;26.75;14.07;;;;;;;2.73;80.91;100872.00;5021049;28;20084;-79
2024/02/29 06:08:54;;;;;;;31.15;15.85;;;;;;;2.69;80.81;100872.25;5021197;28;20484;-80
2024/02/29 06:11:20;;;;;;;28.35;14.75;;;;;;;2.70;80.77;100871.31;5020685;28;20292;-80
2024/02/29 06:13:47;;;;;;;27.15;14.95;;;;;;;2.73;80.79;100877.22;5017623;28;20049;-80
2024/02/29 06:16:16;;;;;;;32.13;15.05;;;;;;;2.72;80.71;100879.91;5021173;28;20108;-80
2024/02/29 06:18:46;;;;;;;31.08;15.15;;;;;;;2.71;80.93;100873.84;5019615;28;20180;-79
2024/02/29 06:21:14;;;;;;;28.50;15.10;;;;;;;2.74;80.46;100868.47;5018677;28;20516;-79
2024/02/29 06:23:41;;;;;;;28.35;15.05;;;;;;;2.76;80.36;100877.06;5018716;28;20054;-78
2024/02/29 06:26:07;;;;;;;30.45;14.98;;;;;;;2.78;80.37;100870.00;5017118;28;20141;-77
2024/02/29 06:28:34;;;;;;;29.05;14.88;;;;;;;2.80;79.88;100872.53;5015788;28;20054;-78
2024/02/29 06:31:01;;;;;;;28.65;15.32;;;;;;;2.84;79.67;100871.44;5014998;28;20504;-77
2024/02/29 06:33:27;;;;;;;28.95;15.73;;;;;;;2.90;79.88;100873.75;5014965;28;20069;-78
2024/02/29 06:35:54;;;;;;;29.67;15.13;;;;;;;2.91;79.51;100872.00;5015610;28;20050;-79
2024/02/29 06:38:22;;;;;;;28.42;15.38;;;;;;;2.94;80.22;100859.56;5015775;28;20056;-78
2024/02/29 06:40:49;;;;;;;31.23;15.02;;;;;;;3.02;79.68;100853.97;5018046;28;20469;-79
2024/02/29 06:43:15;;;;;;;31.17;15.52;;;;;;;3.03;79.19;100853.03;5014989;28;20489;-79
2024/02/29 06:45:47;;;;;;;29.48;15.80;;;;;;;3.12;79.00;100852.53;5015450;28;20131;-79
2024/02/29 06:48:16;;;;;;;27.48;14.27;;;;;;;3.14;79.09;100852.47;5015159;28;20072;-78
2024/02/29 06:50:43;;;;;;;29.90;15.85;;;;;;;3.24;78.68;100856.28;5012876;28;20081;-78
2024/02/29 06:53:10;;;;;;;31.77;15.82;;;;;;;3.31;78.34;100852.44;5014608;28;20060;-79
2024/02/29 06:55:38;;;;;;;28.83;15.02;;;;;;;3.44;77.99;100855.22;5014457;28;20077;-78
2024/02/29 06:58:06;;;;;;;29.05;14.63;;;;;;;3.60;77.61;100855.22;5014772;28;20089;-78
2024/02/29 07:00:33;;;;;;;28.42;15.18;;;;;;;3.89;76.38;100854.47;5014526;28;20421;-78
2024/02/29 07:03:00;;;;;;;32.08;15.20;;;;;;;3.99;75.94;100853.00;5014919;28;20054;-79
2024/02/29 07:05:27;;;;;;;27.95;14.73;;;;;;;4.33;74.65;100869.44;5015624;28;20053;-79
2024/02/29 07:07:55;;;;;;;29.33;14.77;;;;;;;4.50;74.11;100855.34;5015235;28;20052;-80
2024/02/29 07:10:22;;;;;;;29.48;15.52;;;;;;;4.84;72.49;100851.56;5015298;28;20046;-77
2024/02/29 07:12:50;;;;;;;27.90;15.43;;;;;;;4.95;71.65;100851.75;5016020;28;20459;-79
2024/02/29 07:15:17;;;;;;;26.63;14.23;;;;;;;4.91;72.40;100846.78;5016397;28;20470;-79
2024/02/29 07:17:43;;;;;;;29.05;14.15;;;;;;;5.07;71.78;100843.16;5017517;28;20468;-80
2024/02/29 07:20:13;;;;;;;24.75;14.40;;;;;;;5.31;70.80;100842.56;5017119;28;20080;-78
2024/02/29 07:22:39;;;;;;;31.08;15.38;;;;;;;5.15;70.99;100841.84;5016578;28;20089;-79
2024/02/29 07:25:07;;;;;;;24.95;14.55;;;;;;;5.38;70.67;100846.50;5018701;28;20076;-79
2024/02/29 07:27:34;;;;;;;29.17;14.50;;;;;;;5.48;70.31;100846.78;5021037;28;20061;-79
2024/02/29 07:30:03;;;;;;;25.95;15.23;;;;;;;5.47;70.17;100840.69;5014466;28;20088;-78
2024/02/29 07:32:31;;;;;;;29.33;14.90;;;;;;;5.38;70.36;100827.31;5015984;28;20060;-79
2024/02/29 07:34:58;;;;;;;24.45;13.88;;;;;;;5.51;70.41;100839.56;5017078;28;20054;-78
2024/02/29 07:37:24;;;;;;;25.13;14.27;;;;;;;5.69;69.94;100834.09;5017846;28;20566;-77
2024/02/29 07:39:53;;;;;;;24.10;14.40;;;;;;;5.82;69.38;100827.09;5017378;28;20117;-79
2024/02/29 07:42:20;;;;;;;23.80;14.63;;;;;;;5.83;69.78;100831.41;5016462;28;20112;-78
2024/02/29 07:44:46;;;;;;;25.30;13.40;;;;;;;6.05;69.74;100829.09;5015758;28;20050;-79
2024/02/29 07:47:16;;;;;;;27.38;14.77;;;;;;;6.00;68.68;100828.56;5015729;28;20053;-79
2024/02/29 07:49:46;;;;;;;24.30;14.90;;;;;;;6.06;68.12;100819.44;5013812;28;20048;-79
2024/02/29 07:52:13;;;;;;;22.58;13.68;;;;;;;6.31;67.31;100818.66;5007342;28;20046;-80
2024/02/29 07:54:39;;;;;;;23.73;13.45;;;;;;;6.54;66.98;100815.34;5013540;28;20077;-78
2024/02/29 07:57:07;;;;;;;21.92;13.45;;;;;;;7.00;65.32;100813.97;5013059;28;20058;-79
2024/02/29 07:59:33;;;;;;;24.00;13.40;;;;;;;7.03;65.68;100808.50;5013856;28;20050;-78
2024/02/29 08:02:00;;;;;;;24.38;13.63;;;;;;;7.27;64.75;100811.19;5013504;28;20503;-79
2024/02/29 08:04:28;;;;;;;20.80;13.43;;;;;;;7.77;64.66;100801.47;5022119;28;20175;-79
2024/02/29 08:06:54;;;;;;;19.35;12.40;;;;;;;7.93;62.50;100801.16;5022918;28;20046;-80
2024/02/29 08:09:21;;;;;;;23.17;12.50;;;;;;;8.12;62.03;100806.75;5023797;28;20049;-80
2024/02/29 08:11:47;;;;;;;22.85;13.27;;;;;;;7.82;62.64;100794.91;5018252;28;20119;-79
2024/02/29 08:14:14;;;;;;;19.38;12.27;;;;;;;7.77;63.17;100790.94;5014167;28;20054;-79
2024/02/29 08:16:41;;;;;;;21.65;13.00;;;;;;;8.06;62.62;100780.84;5011993;28;20108;-79
2024/02/29 08:19:07;;;;;;;23.35;12.23;;;;;;;8.23;62.25;100784.88;5011910;28;20152;-78
2024/02/29 08:21:36;;;;;;;19.75;12.85;;;;;;;8.30;60.83;100767.63;5012871;28;20237;-77
2024/02/29 08:24:03;;;;;;;23.17;14.32;;;;;;;8.56;62.28;100761.22;5012696;28;20053;-79
2024/02/29 08:26:29;;;;;;;20.90;12.45;;;;;;;8.49;60.21;100761.84;5010946;28;20081;-78
2024/02/29 08:28:56;;;;;;;20.90;12.65;;;;;;;8.51;60.91;100760.75;5012354;28;20085;-78
2024/02/29 08:31:23;;;;;;;22.27;12.68;;;;;;;8.14;60.63;100764.47;5012778;28;20076;-79
2024/02/29 08:33:49;;;;;;;18.98;12.75;;;;;;;7.76;61.80;100762.88;5012789;28;20085;-78
2024/02/29 08:36:16;;;;;;;21.98;12.82;;;;;;;7.67;63.00;100761.75;5010055;28;20068;-78
2024/02/29 08:38:47;;;;;;;22.40;12.50;;;;;;;7.75;63.23;100763.84;5012158;28;20137;-79
2024/02/29 08:41:14;;;;;;;20.48;11.90;;;;;;;7.59;63.36;100759.72;5015906;28;20137;-78
2024/02/29 08:43:42;;;;;;;20.25;13.02;;;;;;;7.61;62.82;100762.22;5017590;28;20131;-79
2024/02/29 08:46:08;;;;;;;21.45;12.65;;;;;;;7.64;62.81;100763.81;5017513;28;20045;-80
2024/02/29 08:48:35;;;;;;;23.58;13.13;;;;;;;7.50;63.46;100755.09;5017131;28;20064;-78
2024/02/29 08:51:03;;;;;;;19.15;11.77;;;;;;;7.41;63.78;100757.53;5016028;28;20490;-77
2024/02/29 08:53:29;;;;;;;19.73;12.13;;;;;;;7.47;64.21;100755.31;5014504;28;20093;-78
2024/02/29 08:55:57;;;;;;;20.33;12.82;;;;;;;7.47;62.47;100754.47;5013141;28;20057;-77
2024/02/29 08:58:24;;;;;;;21.83;11.98;;;;;;;7.38;63.32;100745.47;5011933;28;20495;-77
2024/02/29 09:00:51;;;;;;;18.98;11.90;;;;;;;7.41;63.48;100745.25;5014313;28;20138;-77
2024/02/29 09:03:17;;;;;;;18.50;11.50;;;;;;;7.58;63.10;100729.03;5015801;28;20082;-78
2024/02/29 09:05:44;;;;;;;18.45;11.45;;;;;;;7.51;62.67;100737.50;5015509;28;20082;-78
2024/02/29 09:08:13;;;;;;;22.08;12.40;;;;;;;7.41;62.79;100737.34;5003974;28;20042;-76
2024/02/29 09:10:40;;;;;;;20.63;12.27;;;;;;;7.47;63.05;100731.63;5014722;28;20456;-78
2024/02/29 09:13:08;;;;;;;18.52;11.02;;;;;;;7.59;62.32;100736.00;5016229;28;20058;-79
2024/02/29 09:15:35;;;;;;;18.70;11.18;;;;;;;7.61;62.75;100733.25;5014398;28;20042;-78
2024/02/29 09:18:02;;;;;;;22.30;11.57;;;;;;;7.65;62.65;100729.44;5014903;28;20041;-79
2024/02/29 09:20:29;;;;;;;17.92;10.98;;;;;;;7.74;62.36;100722.66;5018822;28;20041;-79
2024/02/29 09:22:56;;;;;;;16.83;10.85;;;;;;;7.90;62.89;100720.53;5017282;28;20073;-78
2024/02/29 09:25:22;;;;;;;21.13;11.55;;;;;;;8.13;61.48;100712.72;5017354;28;20086;-81
2024/02/29 09:27:50;;;;;;;18.42;11.88;;;;;;;7.88;62.59;100708.44;5019789;28;20133;-80
2024/02/29 09:30:18;;;;;;;18.90;10.90;;;;;;;8.10;62.31;100719.88;5016411;28;20046;-79
2024/02/29 09:32:46;;;;;;;15.27;10.63;;;;;;;7.97;61.81;100720.94;5010172;28;20046;-80
2024/02/29 09:35:14;;;;;;;17.13;10.65;;;;;;;8.05;61.39;100706.22;5016322;28;20081;-78
2024/02/29 09:37:40;;;;;;;17.00;10.73;;;;;;;8.04;61.78;100704.56;5010209;28;20109;-78
2024/02/29 09:43:11;;;;;;;22.27;11.68;;;;;;;8.26;60.48;100695.84;5157056;23;20061;-83
2024/02/29 09:46:24;;;;;;;17.88;11.18;;;;;;;8.32;61.84;100689.25;5040592;28;20054;-84
2024/02/29 09:49:04;;;;;;;15.83;10.33;;;;;;;8.53;61.72;100690.28;5042266;28;20049;-84
2024/02/29 09:51:59;;;;;;;19.27;10.52;;;;;;;8.53;61.76;100687.63;5042464;28;20045;-83
2024/02/29 09:54:47;;;;;;;18.17;11.45;;;;;;;8.50;61.54;100679.94;5035113;28;20115;-82
2024/02/29 09:57:29;;;;;;;18.25;10.88;;;;;;;8.78;61.62;100683.06;5033978;28;20054;-84
2024/02/29 10:00:02;;;;;;;17.92;10.07;;;;;;;8.76;61.34;100680.53;5041808;28;20041;-84
2024/02/29 10:02:58;;;;;;;20.95;10.77;;;;;;;9.20;60.68;100678.81;5042393;28;20503;-84
2024/02/29 10:05:41;;;;;;;19.30;10.35;;;;;;;9.35;60.78;100671.44;5043325;28;20050;-84
2024/02/29 10:12:08;;;;;;;;;;;;;;;;;;;;;
2024/02/29 10:15:06;;;;;;;27.48;12.07;;;;;;;9.06;61.02;100661.44;4984051;28;20130;-84
2024/02/29 10:21:02;;;;;;;16.45;9.82;;;;;;;9.08;60.63;100641.00;4957867;29;20063;-84
2024/02/29 10:26:19;;;;;;;15.73;9.40;;;;;;;9.47;60.89;100633.44;5055293;23;20058;-77
2024/02/29 10:28:48;;;;;;;15.25;8.77;;;;;;;9.78;60.01;100637.00;5029793;28;20520;-77
2024/02/29 10:31:16;;;;;;;13.35;8.35;;;;;;;9.83;59.07;100628.69;5029430;28;20041;-77
2024/02/29 10:33:48;;;;;;;16.23;8.75;;;;;;;10.03;58.94;100624.34;5033644;28;20076;-80
2024/02/29 10:36:15;;;;;;;12.87;8.10;;;;;;;10.22;60.01;100624.44;5029012;28;20041;-77
2024/02/29 10:38:42;;;;;;;14.38;7.95;;;;;;;10.44;58.55;100612.88;5033282;28;20393;-78
2024/02/29 10:41:11;;;;;;;10.43;6.72;;;;;;;10.58;59.04;100616.94;5032924;28;20077;-77
2024/02/29 10:43:38;;;;;;;10.63;7.03;;;;;;;10.63;58.48;100612.97;5032875;28;20466;-78
2024/02/29 10:46:06;;;;;;;10.60;6.63;;;;;;;10.93;57.84;100607.72;5032823;28;20595;-77
2024/02/29 10:48:43;;;;;;;10.75;7.03;;;;;;;10.81;56.92;100604.38;5033269;28;20045;-78
2024/02/29 10:51:18;;;;;;;10.32;5.88;;;;;;;10.86;57.34;100596.84;5032791;28;20065;-78
2024/02/29 10:53:52;;;;;;;11.00;5.45;;;;;;;10.82;58.46;100598.09;5033028;28;20144;-78
2024/02/29 10:56:23;;;;;;;8.80;5.90;;;;;;;10.77;57.64;100601.16;5032862;28;20060;-78
2024/02/29 10:58:58;;;;;;;9.88;6.20;;;;;;;10.56;57.93;100585.34;5033461;28;20049;-76
2024/02/29 11:01:26;;;;;;;10.88;6.75;;;;;;;10.67;57.65;100588.84;5032988;28;20046;-77
2024/02/29 11:03:53;;;;;;;10.27;6.93;;;;;;;10.69;59.66;100589.56;5032678;28;20064;-78
2024/02/29 11:06:22;;;;;;;15.05;7.55;;;;;;;10.61;60.19;100579.66;5032864;28;20045;-77
2024/02/29 11:08:50;;;;;;;12.13;7.25;;;;;;;10.67;58.84;100586.19;5032732;28;20079;-76
2024/02/29 11:11:21;;;;;;;11.60;6.72;;;;;;;10.80;58.94;100576.19;5031417;28;20132;-77
2024/02/29 11:13:48;;;;;;;11.68;6.35;;;;;;;10.81;58.57;100575.25;5032572;28;20482;-76
2024/02/29 11:16:16;;;;;;;8.25;5.30;;;;;;;10.88;58.15;100563.13;5032371;28;20049;-77
2024/02/29 11:18:43;;;;;;;9.15;5.53;;;;;;;10.88;58.60;100571.88;5032423;28;20097;-77
2024/02/29 11:21:10;;;;;;;8.13;5.28;;;;;;;10.93;58.39;100560.88;5032352;28;20570;-77
2024/02/29 11:23:40;;;;;;;7.57;5.18;;;;;;;10.99;57.58;100554.22;5032498;28;20053;-77
2024/02/29 11:26:10;;;;;;;10.93;5.18;;;;;;;10.98;57.39;100552.53;5032217;28;20057;-78
2024/02/29 11:28:38;;;;;;;8.10;5.22;;;;;;;11.04;57.53;100542.22;5031972;28;20140;-78
2024/02/29 11:31:17;;;;;;;8.18;5.00;;;;;;;10.88;57.89;100541.94;5032080;28;20128;-78
2024/02/29 11:33:46;;;;;;;8.18;4.78;;;;;;;10.92;57.83;100540.69;5032260;28;20253;-78
2024/02/29 11:36:13;;;;;;;7.85;4.90;;;;;;;10.98;57.81;100536.63;5032243;28;20528;-79